sensor_id;sensor_type;location;lat;lon;timestamp;pressure;altitude;pressure_sealevel;temperature;humidity
56689;BME280;42565;53.342;-1.534;2023-05-24T00:00:28;99967.71;;;13.25;55.94
56689;BME280;42565;53.342;-1.534;2023-05-24T00:02:55;99974.92;;;13.34;56.12
56689;BME280;42565;53.342;-1.534;2023-05-24T00:05:22;99977.66;;;12.99;55.69
56689;BME280;42565;53.342;-1.534;2023-05-24T00:07:49;99981.02;;;13.80;54.87
56689;BME280;42565;53.342;-1.534;2023-05-24T00:10:17;99979.55;;;13.04;55.34
56689;BME280;42565;53.342;-1.534;2023-05-24T00:12:44;99983.20;;;13.62;55.57
56689;BME280;42565;53.342;-1.534;2023-05-24T00:15:11;99980.04;;;12.80;58.22
56689;BME280;42565;53.342;-1.534;2023-05-24T00:17:38;99982.89;;;12.86;57.69
56689;BME280;42565;53.342;-1.534;2023-05-24T00:20:08;99986.27;;;13.03;57.41
56689;BME280;42565;53.342;-1.534;2023-05-24T00:22:35;99985.33;;;13.37;57.20
56689;BME280;42565;53.342;-1.534;2023-05-24T00:25:02;99982.16;;;13.78;56.07
56689;BME280;42565;53.342;-1.534;2023-05-24T00:27:30;99981.46;;;13.03;57.01
56689;BME280;42565;53.342;-1.534;2023-05-24T00:29:57;99982.80;;;13.51;56.59
56689;BME280;42565;53.342;-1.534;2023-05-24T00:32:24;99980.97;;;13.33;56.73
56689;BME280;42565;53.342;-1.534;2023-05-24T00:34:50;99975.96;;;13.79;55.72
56689;BME280;42565;53.342;-1.534;2023-05-24T00:37:18;99972.88;;;13.33;55.18
56689;BME280;42565;53.342;-1.534;2023-05-24T00:39:45;99966.22;;;13.66;55.91
56689;BME280;42565;53.342;-1.534;2023-05-24T00:42:12;99962.03;;;13.50;55.75
56689;BME280;42565;53.342;-1.534;2023-05-24T00:44:39;99966.52;;;13.48;56.38
56689;BME280;42565;53.342;-1.534;2023-05-24T00:47:06;99967.75;;;13.91;55.77
56689;BME280;42565;53.342;-1.534;2023-05-24T00:49:34;99967.33;;;13.48;55.45
56689;BME280;42565;53.342;-1.534;2023-05-24T00:52:01;99962.59;;;13.47;57.28
56689;BME280;42565;53.342;-1.534;2023-05-24T00:54:29;99958.60;;;13.34;56.21
56689;BME280;42565;53.342;-1.534;2023-05-24T00:56:56;99954.82;;;13.68;55.94
56689;BME280;42565;53.342;-1.534;2023-05-24T00:59:24;99956.32;;;13.48;56.05
56689;BME280;42565;53.342;-1.534;2023-05-24T01:01:51;99962.43;;;13.83;55.34
56689;BME280;42565;53.342;-1.534;2023-05-24T01:04:19;99963.48;;;13.06;55.27
56689;BME280;42565;53.342;-1.534;2023-05-24T01:06:58;99960.31;;;13.49;55.91
56689;BME280;42565;53.342;-1.534;2023-05-24T01:09:33;99958.49;;;13.28;56.55
56689;BME280;42565;53.342;-1.534;2023-05-24T01:12:14;99966.55;;;13.59;56.46
56689;BME280;42565;53.342;-1.534;2023-05-24T01:14:53;99977.31;;;13.29;56.95
56689;BME280;42565;53.342;-1.534;2023-05-24T01:17:27;99973.30;;;13.23;56.19
56689;BME280;42565;53.342;-1.534;2023-05-24T01:19:57;99974.50;;;13.18;57.07
56689;BME280;42565;53.342;-1.534;2023-05-24T01:22:41;99973.09;;;13.30;56.65
56689;BME280;42565;53.342;-1.534;2023-05-24T01:25:24;99972.56;;;13.37;56.65
56689;BME280;42565;53.342;-1.534;2023-05-24T01:27:53;99966.57;;;13.63;56.08
56689;BME280;42565;53.342;-1.534;2023-05-24T01:30:21;99973.07;;;13.38;56.39
56689;BME280;42565;53.342;-1.534;2023-05-24T01:32:49;99974.48;;;14.10;55.63
56689;BME280;42565;53.342;-1.534;2023-05-24T01:35:17;99972.76;;;13.29;56.00
56689;BME280;42565;53.342;-1.534;2023-05-24T01:37:44;99970.67;;;13.78;56.17
56689;BME280;42565;53.342;-1.534;2023-05-24T01:40:11;99972.48;;;13.86;56.32
56689;BME280;42565;53.342;-1.534;2023-05-24T01:42:44;99974.33;;;12.92;56.19
56689;BME280;42565;53.342;-1.534;2023-05-24T01:45:18;99970.86;;;13.31;56.00
56689;BME280;42565;53.342;-1.534;2023-05-24T01:47:57;99962.97;;;13.42;56.70
56689;BME280;42565;53.342;-1.534;2023-05-24T01:50:30;99957.91;;;13.34;56.05
56689;BME280;42565;53.342;-1.534;2023-05-24T01:53:01;99957.21;;;13.73;56.61
56689;BME280;42565;53.342;-1.534;2023-05-24T01:55:30;99955.26;;;13.02;58.03
56689;BME280;42565;53.342;-1.534;2023-05-24T01:58:01;99952.60;;;13.22;57.57
56689;BME280;42565;53.342;-1.534;2023-05-24T02:00:30;99956.13;;;12.83;57.70
56689;BME280;42565;53.342;-1.534;2023-05-24T02:02:57;99955.72;;;13.11;57.89
56689;BME280;42565;53.342;-1.534;2023-05-24T02:05:24;99952.28;;;12.56;58.55
56689;BME280;42565;53.342;-1.534;2023-05-24T02:07:52;99951.93;;;12.99;58.58
56689;BME280;42565;53.342;-1.534;2023-05-24T02:10:19;99951.94;;;12.27;59.17
56689;BME280;42565;53.342;-1.534;2023-05-24T02:12:46;99957.71;;;12.83;58.55
56689;BME280;42565;53.342;-1.534;2023-05-24T02:15:14;99965.25;;;12.84;58.20
56689;BME280;42565;53.342;-1.534;2023-05-24T02:17:41;99964.01;;;12.97;57.77
56689;BME280;42565;53.342;-1.534;2023-05-24T02:20:09;99964.72;;;13.25;57.27
56689;BME280;42565;53.342;-1.534;2023-05-24T02:22:36;99965.22;;;13.51;55.85
56689;BME280;42565;53.342;-1.534;2023-05-24T02:25:04;99962.27;;;13.05;57.36
56689;BME280;42565;53.342;-1.534;2023-05-24T02:27:31;99963.74;;;13.66;56.43
56689;BME280;42565;53.342;-1.534;2023-05-24T02:29:58;99956.37;;;13.91;55.70
56689;BME280;42565;53.342;-1.534;2023-05-24T02:32:25;99952.94;;;13.34;56.09
56689;BME280;42565;53.342;-1.534;2023-05-24T02:34:52;99952.75;;;13.24;56.77
56689;BME280;42565;53.342;-1.534;2023-05-24T02:37:19;99958.49;;;12.92;56.75
56689;BME280;42565;53.342;-1.534;2023-05-24T02:39:46;99957.20;;;13.64;55.56
56689;BME280;42565;53.342;-1.534;2023-05-24T02:42:13;99958.29;;;13.76;55.93
56689;BME280;42565;53.342;-1.534;2023-05-24T02:44:41;99952.01;;;13.79;56.28
56689;BME280;42565;53.342;-1.534;2023-05-24T02:47:08;99943.16;;;13.79;55.68
56689;BME280;42565;53.342;-1.534;2023-05-24T02:49:35;99941.00;;;13.33;56.48
56689;BME280;42565;53.342;-1.534;2023-05-24T02:52:03;99948.58;;;13.22;56.77
56689;BME280;42565;53.342;-1.534;2023-05-24T02:54:30;99943.52;;;12.98;57.41
56689;BME280;42565;53.342;-1.534;2023-05-24T02:56:57;99939.92;;;13.61;56.28
56689;BME280;42565;53.342;-1.534;2023-05-24T02:59:23;99938.10;;;13.19;57.29
56689;BME280;42565;53.342;-1.534;2023-05-24T03:01:51;99938.64;;;12.94;58.92
56689;BME280;42565;53.342;-1.534;2023-05-24T03:04:19;99936.62;;;12.56;57.67
56689;BME280;42565;53.342;-1.534;2023-05-24T03:06:46;99938.37;;;13.00;58.30
56689;BME280;42565;53.342;-1.534;2023-05-24T03:09:14;99941.24;;;13.09;57.65
56689;BME280;42565;53.342;-1.534;2023-05-24T03:11:41;99940.66;;;12.61;59.01
56689;BME280;42565;53.342;-1.534;2023-05-24T03:14:34;99941.14;;;13.28;59.14
56689;BME280;42565;53.342;-1.534;2023-05-24T03:17:01;99936.72;;;12.55;59.80
56689;BME280;42565;53.342;-1.534;2023-05-24T03:19:29;99939.51;;;12.29;60.01
56689;BME280;42565;53.342;-1.534;2023-05-24T03:21:55;99937.88;;;12.45;60.16
56689;BME280;42565;53.342;-1.534;2023-05-24T03:24:23;99938.98;;;12.50;60.24
56689;BME280;42565;53.342;-1.534;2023-05-24T03:26:49;99931.95;;;12.35;60.81
56689;BME280;42565;53.342;-1.534;2023-05-24T03:29:17;99935.77;;;12.16;61.24
56689;BME280;42565;53.342;-1.534;2023-05-24T03:31:44;99932.95;;;12.33;60.78
56689;BME280;42565;53.342;-1.534;2023-05-24T03:34:10;99929.70;;;12.11;61.44
56689;BME280;42565;53.342;-1.534;2023-05-24T03:36:37;99926.18;;;12.48;60.87
56689;BME280;42565;53.342;-1.534;2023-05-24T03:39:05;99928.55;;;12.32;60.55
56689;BME280;42565;53.342;-1.534;2023-05-24T03:41:32;99924.21;;;12.52;60.08
56689;BME280;42565;53.342;-1.534;2023-05-24T03:43:59;99923.15;;;12.24;60.88
56689;BME280;42565;53.342;-1.534;2023-05-24T03:46:26;99922.09;;;12.39;60.41
56689;BME280;42565;53.342;-1.534;2023-05-24T03:48:53;99922.36;;;12.28;60.19
56689;BME280;42565;53.342;-1.534;2023-05-24T03:51:20;99915.55;;;12.34;59.63
56689;BME280;42565;53.342;-1.534;2023-05-24T03:53:47;99910.29;;;12.72;59.18
56689;BME280;42565;53.342;-1.534;2023-05-24T03:56:14;99911.23;;;12.52;59.84
56689;BME280;42565;53.342;-1.534;2023-05-24T03:58:42;99904.18;;;12.60;59.72
56689;BME280;42565;53.342;-1.534;2023-05-24T04:01:08;99906.70;;;12.10;61.49
56689;BME280;42565;53.342;-1.534;2023-05-24T04:03:35;99908.23;;;12.44;59.98
56689;BME280;42565;53.342;-1.534;2023-05-24T04:06:02;99912.06;;;12.57;59.31
56689;BME280;42565;53.342;-1.534;2023-05-24T04:08:29;99916.29;;;12.52;58.59
56689;BME280;42565;53.342;-1.534;2023-05-24T04:10:56;99917.80;;;11.89;60.53
56689;BME280;42565;53.342;-1.534;2023-05-24T04:13:53;99916.53;;;12.66;60.37
56689;BME280;42565;53.342;-1.534;2023-05-24T04:16:21;99917.27;;;11.66;59.21
56689;BME280;42565;53.342;-1.534;2023-05-24T04:18:48;99917.87;;;12.38;59.60
56689;BME280;42565;53.342;-1.534;2023-05-24T04:21:16;99915.99;;;12.11;59.56
56689;BME280;42565;53.342;-1.534;2023-05-24T04:23:44;99915.66;;;12.42;59.37
56689;BME280;42565;53.342;-1.534;2023-05-24T04:26:11;99920.37;;;12.34;59.40
56689;BME280;42565;53.342;-1.534;2023-05-24T04:28:38;99922.30;;;12.32;59.71
56689;BME280;42565;53.342;-1.534;2023-05-24T04:31:05;99920.70;;;12.41;59.59
56689;BME280;42565;53.342;-1.534;2023-05-24T04:33:32;99917.13;;;12.02;60.69
56689;BME280;42565;53.342;-1.534;2023-05-24T04:35:59;99916.56;;;11.81;61.08
56689;BME280;42565;53.342;-1.534;2023-05-24T04:38:27;99918.32;;;11.66;61.63
56689;BME280;42565;53.342;-1.534;2023-05-24T04:40:55;99918.20;;;11.50;63.22
56689;BME280;42565;53.342;-1.534;2023-05-24T04:43:22;99912.95;;;11.70;62.29
56689;BME280;42565;53.342;-1.534;2023-05-24T04:45:50;99910.41;;;12.21;61.59
56689;BME280;42565;53.342;-1.534;2023-05-24T04:48:17;99913.79;;;11.79;61.11
56689;BME280;42565;53.342;-1.534;2023-05-24T04:50:44;99913.04;;;11.98;60.93
56689;BME280;42565;53.342;-1.534;2023-05-24T04:53:11;99922.29;;;12.22;60.85
56689;BME280;42565;53.342;-1.534;2023-05-24T04:55:38;99921.07;;;12.04;60.25
56689;BME280;42565;53.342;-1.534;2023-05-24T04:58:05;99919.43;;;12.41;59.82
56689;BME280;42565;53.342;-1.534;2023-05-24T05:00:31;99921.86;;;12.46;59.63
56689;BME280;42565;53.342;-1.534;2023-05-24T05:02:58;99921.19;;;12.57;59.81
56689;BME280;42565;53.342;-1.534;2023-05-24T05:05:25;99920.15;;;12.83;58.17
56689;BME280;42565;53.342;-1.534;2023-05-24T05:07:52;99923.68;;;12.81;58.49
56689;BME280;42565;53.342;-1.534;2023-05-24T05:10:18;99931.42;;;12.36;58.75
56689;BME280;42565;53.342;-1.534;2023-05-24T05:12:46;99930.00;;;12.55;58.55
56689;BME280;42565;53.342;-1.534;2023-05-24T05:15:14;99933.31;;;13.48;57.20
56689;BME280;42565;53.342;-1.534;2023-05-24T05:17:41;99940.17;;;12.82;57.44
56689;BME280;42565;53.342;-1.534;2023-05-24T05:20:08;99951.56;;;13.16;57.16
56689;BME280;42565;53.342;-1.534;2023-05-24T05:22:35;99954.81;;;13.29;55.59
56689;BME280;42565;53.342;-1.534;2023-05-24T05:25:02;99961.93;;;12.56;56.65
56689;BME280;42565;53.342;-1.534;2023-05-24T05:27:29;99968.97;;;12.80;56.69
56689;BME280;42565;53.342;-1.534;2023-05-24T05:29:56;99965.44;;;12.79;57.13
56689;BME280;42565;53.342;-1.534;2023-05-24T05:32:24;99962.51;;;12.89;56.39
56689;BME280;42565;53.342;-1.534;2023-05-24T05:34:52;99958.25;;;13.07;56.03
56689;BME280;42565;53.342;-1.534;2023-05-24T05:37:19;99955.82;;;12.84;54.50
56689;BME280;42565;53.342;-1.534;2023-05-24T05:39:46;99957.94;;;14.17;53.31
56689;BME280;42565;53.342;-1.534;2023-05-24T05:42:14;99956.68;;;13.88;53.61
56689;BME280;42565;53.342;-1.534;2023-05-24T05:44:41;99951.57;;;14.00;51.91
56689;BME280;42565;53.342;-1.534;2023-05-24T05:47:08;99956.18;;;14.50;50.55
56689;BME280;42565;53.342;-1.534;2023-05-24T05:49:36;99952.91;;;14.43;50.32
56689;BME280;42565;53.342;-1.534;2023-05-24T05:52:04;99953.17;;;14.24;51.82
56689;BME280;42565;53.342;-1.534;2023-05-24T05:54:31;99959.69;;;13.81;52.54
56689;BME280;42565;53.342;-1.534;2023-05-24T05:56:58;99960.83;;;14.08;54.03
56689;BME280;42565;53.342;-1.534;2023-05-24T05:59:26;99955.98;;;13.36;54.96
56689;BME280;42565;53.342;-1.534;2023-05-24T06:01:53;99956.37;;;13.51;55.37
56689;BME280;42565;53.342;-1.534;2023-05-24T06:04:19;99959.14;;;13.19;55.64
56689;BME280;42565;53.342;-1.534;2023-05-24T06:06:46;99959.47;;;13.54;55.87
56689;BME280;42565;53.342;-1.534;2023-05-24T06:09:13;99962.21;;;13.52;56.20
56689;BME280;42565;53.342;-1.534;2023-05-24T06:11:40;99955.31;;;13.52;55.20
56689;BME280;42565;53.342;-1.534;2023-05-24T06:14:08;99957.94;;;13.78;54.59
56689;BME280;42565;53.342;-1.534;2023-05-24T06:16:35;99960.71;;;14.06;53.71
56689;BME280;42565;53.342;-1.534;2023-05-24T06:19:01;99963.55;;;14.10;54.78
56689;BME280;42565;53.342;-1.534;2023-05-24T06:21:28;99961.65;;;13.43;55.40
56689;BME280;42565;53.342;-1.534;2023-05-24T06:24:00;99960.31;;;13.51;54.92
56689;BME280;42565;53.342;-1.534;2023-05-24T06:26:27;99963.66;;;13.93;54.75
56689;BME280;42565;53.342;-1.534;2023-05-24T06:28:54;99965.41;;;14.39;53.36
56689;BME280;42565;53.342;-1.534;2023-05-24T06:31:21;99976.09;;;14.10;52.76
56689;BME280;42565;53.342;-1.534;2023-05-24T06:33:58;99974.74;;;13.85;53.90
56689;BME280;42565;53.342;-1.534;2023-05-24T06:36:26;99984.07;;;14.52;52.41
56689;BME280;42565;53.342;-1.534;2023-05-24T06:38:53;99988.27;;;14.47;51.51
56689;BME280;42565;53.342;-1.534;2023-05-24T06:41:20;99983.66;;;14.15;52.56
56689;BME280;42565;53.342;-1.534;2023-05-24T06:43:47;99988.01;;;14.32;52.22
56689;BME280;42565;53.342;-1.534;2023-05-24T06:46:16;99992.12;;;14.57;52.27
56689;BME280;42565;53.342;-1.534;2023-05-24T06:48:43;99990.89;;;14.05;51.74
56689;BME280;42565;53.342;-1.534;2023-05-24T06:51:10;99992.83;;;14.06;51.92
56689;BME280;42565;53.342;-1.534;2023-05-24T06:53:37;99994.85;;;14.65;52.47
56689;BME280;42565;53.342;-1.534;2023-05-24T06:56:05;100001.37;;;14.75;50.74
56689;BME280;42565;53.342;-1.534;2023-05-24T06:58:32;99998.70;;;14.65;51.10
56689;BME280;42565;53.342;-1.534;2023-05-24T07:00:59;99996.39;;;14.71;50.11
56689;BME280;42565;53.342;-1.534;2023-05-24T07:03:26;99996.39;;;14.46;51.37
56689;BME280;42565;53.342;-1.534;2023-05-24T07:05:54;99992.18;;;14.91;50.04
56689;BME280;42565;53.342;-1.534;2023-05-24T07:08:22;99990.28;;;14.15;49.41
56689;BME280;42565;53.342;-1.534;2023-05-24T07:10:49;99995.84;;;15.31;50.25
56689;BME280;42565;53.342;-1.534;2023-05-24T07:13:16;99998.12;;;14.47;49.27
56689;BME280;42565;53.342;-1.534;2023-05-24T07:15:45;100002.55;;;15.05;49.67
56689;BME280;42565;53.342;-1.534;2023-05-24T07:18:12;99998.67;;;15.48;49.38
56689;BME280;42565;53.342;-1.534;2023-05-24T07:20:39;99995.70;;;15.29;48.68
56689;BME280;42565;53.342;-1.534;2023-05-24T07:23:07;100001.33;;;15.67;48.47
56689;BME280;42565;53.342;-1.534;2023-05-24T07:25:34;100000.07;;;15.89;47.29
56689;BME280;42565;53.342;-1.534;2023-05-24T07:28:02;99998.36;;;15.64;47.79
56689;BME280;42565;53.342;-1.534;2023-05-24T07:30:30;100001.77;;;15.20;47.03
56689;BME280;42565;53.342;-1.534;2023-05-24T07:32:57;100003.05;;;16.17;46.04
56689;BME280;42565;53.342;-1.534;2023-05-24T07:35:25;100004.80;;;15.69;46.00
56689;BME280;42565;53.342;-1.534;2023-05-24T07:37:52;100002.19;;;16.07;45.58
56689;BME280;42565;53.342;-1.534;2023-05-24T07:40:19;99998.67;;;16.21;44.33
56689;BME280;42565;53.342;-1.534;2023-05-24T07:42:47;99995.85;;;15.90;44.50
56689;BME280;42565;53.342;-1.534;2023-05-24T07:45:14;99997.13;;;16.65;44.14
56689;BME280;42565;53.342;-1.534;2023-05-24T07:47:41;100002.23;;;16.83;43.52
56689;BME280;42565;53.342;-1.534;2023-05-24T07:50:09;100001.39;;;16.52;44.84
56689;BME280;42565;53.342;-1.534;2023-05-24T07:52:37;100000.06;;;16.34;44.42
56689;BME280;42565;53.342;-1.534;2023-05-24T07:55:04;100003.19;;;16.60;45.16
56689;BME280;42565;53.342;-1.534;2023-05-24T07:57:31;100003.91;;;17.53;43.87
56689;BME280;42565;53.342;-1.534;2023-05-24T07:59:59;100003.32;;;17.11;43.94
56689;BME280;42565;53.342;-1.534;2023-05-24T08:02:26;100005.51;;;16.90;44.78
56689;BME280;42565;53.342;-1.534;2023-05-24T08:04:54;100002.01;;;17.30;43.04
56689;BME280;42565;53.342;-1.534;2023-05-24T08:07:21;100005.27;;;16.88;42.13
56689;BME280;42565;53.342;-1.534;2023-05-24T08:09:49;100007.25;;;17.54;42.03
56689;BME280;42565;53.342;-1.534;2023-05-24T08:12:16;100009.14;;;17.58;40.89
56689;BME280;42565;53.342;-1.534;2023-05-24T08:14:43;100003.81;;;17.63;42.87
56689;BME280;42565;53.342;-1.534;2023-05-24T08:17:10;99996.72;;;17.85;40.71
56689;BME280;42565;53.342;-1.534;2023-05-24T08:19:37;100003.16;;;18.18;40.91
56689;BME280;42565;53.342;-1.534;2023-05-24T08:22:05;100002.19;;;18.65;39.43
56689;BME280;42565;53.342;-1.534;2023-05-24T08:24:33;100002.73;;;18.86;39.30
56689;BME280;42565;53.342;-1.534;2023-05-24T08:27:00;100003.96;;;19.18;37.48
56689;BME280;42565;53.342;-1.534;2023-05-24T08:29:28;99999.22;;;18.76;37.73
56689;BME280;42565;53.342;-1.534;2023-05-24T08:31:55;100002.50;;;19.58;36.25
56689;BME280;42565;53.342;-1.534;2023-05-24T08:34:23;99999.55;;;19.39;35.37
56689;BME280;42565;53.342;-1.534;2023-05-24T08:36:50;99996.88;;;18.97;35.05
56689;BME280;42565;53.342;-1.534;2023-05-24T08:39:18;100000.15;;;18.21;36.19
56689;BME280;42565;53.342;-1.534;2023-05-24T08:41:45;100001.16;;;18.83;35.68
56689;BME280;42565;53.342;-1.534;2023-05-24T08:44:24;100006.76;;;19.05;35.78
56689;BME280;42565;53.342;-1.534;2023-05-24T08:46:52;100006.44;;;18.37;37.78
56689;BME280;42565;53.342;-1.534;2023-05-24T08:49:41;99999.08;;;19.76;36.39
56689;BME280;42565;53.342;-1.534;2023-05-24T08:52:09;100002.80;;;19.52;35.01
56689;BME280;42565;53.342;-1.534;2023-05-24T08:54:39;100003.54;;;20.10;35.54
56689;BME280;42565;53.342;-1.534;2023-05-24T08:57:08;100001.63;;;19.98;34.13
56689;BME280;42565;53.342;-1.534;2023-05-24T08:59:35;100004.94;;;19.59;34.02
56689;BME280;42565;53.342;-1.534;2023-05-24T09:02:03;100004.14;;;19.61;34.92
56689;BME280;42565;53.342;-1.534;2023-05-24T09:04:33;100006.87;;;19.79;35.01
56689;BME280;42565;53.342;-1.534;2023-05-24T09:07:01;100003.16;;;20.42;33.31
56689;BME280;42565;53.342;-1.534;2023-05-24T09:09:29;100004.13;;;20.24;34.48
56689;BME280;42565;53.342;-1.534;2023-05-24T09:11:58;100001.36;;;20.41;33.21
56689;BME280;42565;53.342;-1.534;2023-05-24T09:14:28;99998.16;;;20.64;33.01
56689;BME280;42565;53.342;-1.534;2023-05-24T09:16:56;99999.74;;;20.53;33.41
56689;BME280;42565;53.342;-1.534;2023-05-24T09:19:24;99988.82;;;20.71;32.10
56689;BME280;42565;53.342;-1.534;2023-05-24T09:21:52;99989.96;;;20.90;32.01
56689;BME280;42565;53.342;-1.534;2023-05-24T09:24:21;99993.37;;;20.03;32.23
56689;BME280;42565;53.342;-1.534;2023-05-24T09:26:49;99993.09;;;20.35;32.74
56689;BME280;42565;53.342;-1.534;2023-05-24T09:29:21;99989.85;;;20.76;33.38
56689;BME280;42565;53.342;-1.534;2023-05-24T09:31:48;99991.13;;;21.56;32.43
56689;BME280;42565;53.342;-1.534;2023-05-24T09:34:15;99993.27;;;21.31;32.14
56689;BME280;42565;53.342;-1.534;2023-05-24T09:36:45;99991.10;;;21.53;33.02
56689;BME280;42565;53.342;-1.534;2023-05-24T09:39:13;99992.37;;;21.22;32.62
56689;BME280;42565;53.342;-1.534;2023-05-24T09:41:42;99986.97;;;21.76;30.91
56689;BME280;42565;53.342;-1.534;2023-05-24T09:44:12;99991.44;;;21.13;30.72
56689;BME280;42565;53.342;-1.534;2023-05-24T09:46:39;99993.56;;;21.11;30.84
56689;BME280;42565;53.342;-1.534;2023-05-24T09:49:07;99994.78;;;21.09;30.47
56689;BME280;42565;53.342;-1.534;2023-05-24T09:51:36;99991.70;;;21.47;30.63
56689;BME280;42565;53.342;-1.534;2023-05-24T09:54:04;99992.34;;;21.66;30.31
56689;BME280;42565;53.342;-1.534;2023-05-24T09:56:32;99992.33;;;21.36;29.71
56689;BME280;42565;53.342;-1.534;2023-05-24T09:59:05;99990.34;;;21.48;30.66
56689;BME280;42565;53.342;-1.534;2023-05-24T10:01:33;99986.64;;;22.08;29.76
56689;BME280;42565;53.342;-1.534;2023-05-24T10:04:00;99987.09;;;22.81;29.72
56689;BME280;42565;53.342;-1.534;2023-05-24T10:06:28;99984.74;;;22.53;28.43
56689;BME280;42565;53.342;-1.534;2023-05-24T10:08:57;99983.65;;;22.97;29.09
56689;BME280;42565;53.342;-1.534;2023-05-24T10:11:25;99980.70;;;22.26;27.86
56689;BME280;42565;53.342;-1.534;2023-05-24T10:13:52;99978.53;;;22.60;28.48
56689;BME280;42565;53.342;-1.534;2023-05-24T10:16:20;99981.52;;;22.28;28.48
56689;BME280;42565;53.342;-1.534;2023-05-24T10:18:48;99975.49;;;21.94;29.89
56689;BME280;42565;53.342;-1.534;2023-05-24T10:21:16;99974.55;;;22.58;29.12
56689;BME280;42565;53.342;-1.534;2023-05-24T10:23:49;99975.21;;;22.92;29.27
56689;BME280;42565;53.342;-1.534;2023-05-24T10:26:19;99975.59;;;22.85;28.57
56689;BME280;42565;53.342;-1.534;2023-05-24T10:28:50;99978.78;;;22.56;28.88
56689;BME280;42565;53.342;-1.534;2023-05-24T10:31:23;99979.59;;;22.46;29.17
56689;BME280;42565;53.342;-1.534;2023-05-24T10:33:51;99983.27;;;23.04;29.70
56689;BME280;42565;53.342;-1.534;2023-05-24T10:36:20;99979.57;;;22.12;30.19
56689;BME280;42565;53.342;-1.534;2023-05-24T10:38:47;99980.95;;;22.86;28.62
56689;BME280;42565;53.342;-1.534;2023-05-24T10:41:17;99971.76;;;23.30;29.32
56689;BME280;42565;53.342;-1.534;2023-05-24T10:43:45;99977.98;;;22.72;28.47
56689;BME280;42565;53.342;-1.534;2023-05-24T10:46:14;99972.32;;;21.94;29.60
56689;BME280;42565;53.342;-1.534;2023-05-24T10:48:42;99971.22;;;21.67;29.93
56689;BME280;42565;53.342;-1.534;2023-05-24T10:51:43;99965.73;;;22.52;29.99
56689;BME280;42565;53.342;-1.534;2023-05-24T10:54:11;99971.38;;;22.50;30.40
56689;BME280;42565;53.342;-1.534;2023-05-24T10:56:40;99971.45;;;22.39;28.95
56689;BME280;42565;53.342;-1.534;2023-05-24T10:59:07;99968.96;;;23.46;28.88
56689;BME280;42565;53.342;-1.534;2023-05-24T11:01:35;99965.68;;;23.84;27.93
56689;BME280;42565;53.342;-1.534;2023-05-24T11:04:06;99963.99;;;23.27;27.89
56689;BME280;42565;53.342;-1.534;2023-05-24T11:06:55;99966.97;;;23.48;27.97
56689;BME280;42565;53.342;-1.534;2023-05-24T11:09:23;99973.48;;;24.52;27.77
56689;BME280;42565;53.342;-1.534;2023-05-24T11:11:54;99976.23;;;25.23;26.38
56689;BME280;42565;53.342;-1.534;2023-05-24T11:14:23;99974.07;;;24.37;25.80
56689;BME280;42565;53.342;-1.534;2023-05-24T11:16:50;99977.14;;;24.34;26.64
56689;BME280;42565;53.342;-1.534;2023-05-24T11:19:20;99970.37;;;24.42;27.23
56689;BME280;42565;53.342;-1.534;2023-05-24T11:21:49;99974.86;;;23.70;26.95
56689;BME280;42565;53.342;-1.534;2023-05-24T11:24:18;99974.00;;;22.37;28.15
56689;BME280;42565;53.342;-1.534;2023-05-24T11:26:46;99974.92;;;24.19;28.01
56689;BME280;42565;53.342;-1.534;2023-05-24T11:29:14;99969.45;;;24.60;28.07
56689;BME280;42565;53.342;-1.534;2023-05-24T11:31:46;99963.72;;;24.77;27.48
56689;BME280;42565;53.342;-1.534;2023-05-24T11:34:19;99961.39;;;25.73;27.91
56689;BME280;42565;53.342;-1.534;2023-05-24T11:36:47;99957.44;;;25.38;26.62
56689;BME280;42565;53.342;-1.534;2023-05-24T11:39:15;99959.97;;;25.73;26.62
56689;BME280;42565;53.342;-1.534;2023-05-24T11:41:43;99967.00;;;25.18;26.06
56689;BME280;42565;53.342;-1.534;2023-05-24T11:44:11;99964.11;;;25.65;26.90
56689;BME280;42565;53.342;-1.534;2023-05-24T11:46:42;99972.03;;;26.23;26.97
56689;BME280;42565;53.342;-1.534;2023-05-24T11:49:12;99969.29;;;25.75;26.49
56689;BME280;42565;53.342;-1.534;2023-05-24T11:51:40;99970.56;;;25.75;26.51
56689;BME280;42565;53.342;-1.534;2023-05-24T11:54:07;99967.47;;;26.07;25.69
56689;BME280;42565;53.342;-1.534;2023-05-24T11:56:35;99967.89;;;25.90;27.15
56689;BME280;42565;53.342;-1.534;2023-05-24T11:59:08;99966.41;;;25.57;26.18
56689;BME280;42565;53.342;-1.534;2023-05-24T12:01:37;99956.81;;;25.04;26.52
56689;BME280;42565;53.342;-1.534;2023-05-24T12:04:05;99966.28;;;23.67;28.22
56689;BME280;42565;53.342;-1.534;2023-05-24T12:06:35;99964.67;;;24.11;28.93
56689;BME280;42565;53.342;-1.534;2023-05-24T12:09:03;99968.30;;;24.46;29.05
56689;BME280;42565;53.342;-1.534;2023-05-24T12:11:30;99976.17;;;24.18;28.34
56689;BME280;42565;53.342;-1.534;2023-05-24T12:13:58;99975.52;;;24.13;29.28
56689;BME280;42565;53.342;-1.534;2023-05-24T12:16:26;99978.27;;;24.12;29.06
56689;BME280;42565;53.342;-1.534;2023-05-24T12:18:54;99983.08;;;23.73;28.58
56689;BME280;42565;53.342;-1.534;2023-05-24T12:21:22;99982.36;;;22.98;29.33
56689;BME280;42565;53.342;-1.534;2023-05-24T12:23:49;99980.31;;;23.05;29.80
56689;BME280;42565;53.342;-1.534;2023-05-24T12:26:18;99983.89;;;21.11;30.02
56689;BME280;42565;53.342;-1.534;2023-05-24T12:28:47;99988.50;;;21.29;31.44
56689;BME280;42565;53.342;-1.534;2023-05-24T12:31:19;99989.18;;;21.28;30.87
56689;BME280;42565;53.342;-1.534;2023-05-24T12:33:46;99989.66;;;22.17;31.78
56689;BME280;42565;53.342;-1.534;2023-05-24T12:36:14;99987.23;;;21.51;30.25
56689;BME280;42565;53.342;-1.534;2023-05-24T12:38:41;99986.85;;;21.47;30.07
56689;BME280;42565;53.342;-1.534;2023-05-24T12:41:09;99989.32;;;21.85;30.88
56689;BME280;42565;53.342;-1.534;2023-05-24T12:43:37;99996.61;;;21.27;30.51
56689;BME280;42565;53.342;-1.534;2023-05-24T12:46:04;99992.75;;;21.68;31.12
56689;BME280;42565;53.342;-1.534;2023-05-24T12:48:32;99991.96;;;21.97;31.49
56689;BME280;42565;53.342;-1.534;2023-05-24T12:50:59;99992.49;;;22.82;31.04
56689;BME280;42565;53.342;-1.534;2023-05-24T12:53:27;99995.97;;;22.71;31.34